sensor_id;sensor_type;location;lat;lon;timestamp;pressure;altitude;pressure_sealevel;temperature;humidity
49973;BME280;65693;49.798;10.968;2023-04-21T00:00:47;97869.91;;;9.74;55.56
49973;BME280;65693;49.798;10.968;2023-04-21T00:03:13;97868.94;;;9.75;55.52
49973;BME280;65693;49.798;10.968;2023-04-21T00:05:40;97871.59;;;9.75;55.77
49973;BME280;65693;49.798;10.968;2023-04-21T00:08:08;97868.09;;;9.74;55.58
49973;BME280;65693;49.798;10.968;2023-04-21T00:10:35;97872.53;;;9.74;56.00
49973;BME280;65693;49.798;10.968;2023-04-21T00:13:01;97868.94;;;9.75;55.60
49973;BME280;65693;49.798;10.968;2023-04-21T00:15:28;97865.44;;;9.74;55.85
49973;BME280;65693;49.798;10.968;2023-04-21T00:17:54;97860.16;;;9.74;55.69
49973;BME280;65693;49.798;10.968;2023-04-21T00:20:22;97855.81;;;9.73;55.66
49973;BME280;65693;49.798;10.968;2023-04-21T00:22:51;97850.41;;;9.75;55.77
49973;BME280;65693;49.798;10.968;2023-04-21T00:25:18;97852.19;;;9.74;55.71
49973;BME280;65693;49.798;10.968;2023-04-21T00:27:45;97856.56;;;9.75;56.00
49973;BME280;65693;49.798;10.968;2023-04-21T00:30:12;97853.06;;;9.75;55.63
49973;BME280;65693;49.798;10.968;2023-04-21T00:32:38;97857.50;;;9.74;56.01
49973;BME280;65693;49.798;10.968;2023-04-21T00:35:05;97857.50;;;9.74;55.97
49973;BME280;65693;49.798;10.968;2023-04-21T00:37:31;97857.63;;;9.73;55.81
49973;BME280;65693;49.798;10.968;2023-04-21T00:39:58;97852.31;;;9.73;55.96
49973;BME280;65693;49.798;10.968;2023-04-21T00:42:26;97850.63;;;9.72;55.74
49973;BME280;65693;49.798;10.968;2023-04-21T00:44:52;97846.28;;;9.71;55.84
49973;BME280;65693;49.798;10.968;2023-04-21T00:47:19;97847.13;;;9.71;55.76
49973;BME280;65693;49.798;10.968;2023-04-21T00:49:45;97846.28;;;9.71;55.83
49973;BME280;65693;49.798;10.968;2023-04-21T00:52:13;97839.31;;;9.70;55.96
49973;BME280;65693;49.798;10.968;2023-04-21T00:54:41;97844.59;;;9.70;55.91
49973;BME280;65693;49.798;10.968;2023-04-21T00:57:08;97836.66;;;9.70;56.04
49973;BME280;65693;49.798;10.968;2023-04-21T00:59:37;97835.78;;;9.69;56.11
49973;BME280;65693;49.798;10.968;2023-04-21T01:02:03;97828.81;;;9.68;56.07
49973;BME280;65693;49.798;10.968;2023-04-21T01:04:30;97818.22;;;9.68;56.08
49973;BME280;65693;49.798;10.968;2023-04-21T01:07:01;97826.06;;;9.70;55.83
49973;BME280;65693;49.798;10.968;2023-04-21T01:09:29;97827.84;;;9.69;55.84
49973;BME280;65693;49.798;10.968;2023-04-21T01:12:02;97826.06;;;9.70;55.86
49973;BME280;65693;49.798;10.968;2023-04-21T01:14:29;97820.88;;;9.68;55.72
49973;BME280;65693;49.798;10.968;2023-04-21T01:16:57;97818.22;;;9.68;56.16
49973;BME280;65693;49.798;10.968;2023-04-21T01:19:25;97820.97;;;9.66;55.78
49973;BME280;65693;49.798;10.968;2023-04-21T01:21:55;97826.16;;;9.68;55.96
49973;BME280;65693;49.798;10.968;2023-04-21T01:24:22;97827.03;;;9.68;56.17
49973;BME280;65693;49.798;10.968;2023-04-21T01:26:49;97825.41;;;9.66;55.74
49973;BME280;65693;49.798;10.968;2023-04-21T01:29:16;97824.47;;;9.67;56.12
49973;BME280;65693;49.798;10.968;2023-04-21T01:31:42;97820.03;;;9.67;55.94
49973;BME280;65693;49.798;10.968;2023-04-21T01:34:11;97823.59;;;9.66;55.77
49973;BME280;65693;49.798;10.968;2023-04-21T01:36:38;97831.53;;;9.66;55.81
49973;BME280;65693;49.798;10.968;2023-04-21T01:39:06;97829.84;;;9.65;56.14
49973;BME280;65693;49.798;10.968;2023-04-21T01:41:32;97826.25;;;9.66;55.78
49973;BME280;65693;49.798;10.968;2023-04-21T01:43:58;97823.59;;;9.66;56.28
49973;BME280;65693;49.798;10.968;2023-04-21T01:46:25;97830.72;;;9.66;56.32
49973;BME280;65693;49.798;10.968;2023-04-21T01:48:52;97832.41;;;9.67;55.87
49973;BME280;65693;49.798;10.968;2023-04-21T01:51:18;97829.84;;;9.65;55.83
49973;BME280;65693;49.798;10.968;2023-04-21T01:53:44;97835.06;;;9.67;56.13
49973;BME280;65693;49.798;10.968;2023-04-21T01:56:13;97837.78;;;9.65;56.11
49973;BME280;65693;49.798;10.968;2023-04-21T01:58:40;97834.41;;;9.63;55.80
49973;BME280;65693;49.798;10.968;2023-04-21T02:01:06;97835.13;;;9.65;55.94
49973;BME280;65693;49.798;10.968;2023-04-21T02:03:33;97832.50;;;9.65;56.26
49973;BME280;65693;49.798;10.968;2023-04-21T02:05:59;97842.25;;;9.65;56.03
49973;BME280;65693;49.798;10.968;2023-04-21T02:08:26;97838.66;;;9.66;56.28
49973;BME280;65693;49.798;10.968;2023-04-21T02:10:52;97840.44;;;9.65;55.82
49973;BME280;65693;49.798;10.968;2023-04-21T02:13:20;97838.75;;;9.64;56.05
49973;BME280;65693;49.798;10.968;2023-04-21T02:15:47;97836.09;;;9.64;55.96
49973;BME280;65693;49.798;10.968;2023-04-21T02:18:13;97836.09;;;9.64;55.98
49973;BME280;65693;49.798;10.968;2023-04-21T02:20:41;97841.38;;;9.64;55.84
49973;BME280;65693;49.798;10.968;2023-04-21T02:23:07;97840.44;;;9.65;56.18
49973;BME280;65693;49.798;10.968;2023-04-21T02:25:33;97837.03;;;9.63;56.29
49973;BME280;65693;49.798;10.968;2023-04-21T02:28:00;97840.56;;;9.64;55.97
49973;BME280;65693;49.798;10.968;2023-04-21T02:30:28;97840.56;;;9.64;56.05
49973;BME280;65693;49.798;10.968;2023-04-21T02:32:54;97851.13;;;9.64;56.21
49973;BME280;65693;49.798;10.968;2023-04-21T02:35:21;97843.28;;;9.62;56.16
49973;BME280;65693;49.798;10.968;2023-04-21T02:37:47;97845.72;;;9.65;56.03
49973;BME280;65693;49.798;10.968;2023-04-21T02:40:13;97846.69;;;9.64;56.15
49973;BME280;65693;49.798;10.968;2023-04-21T02:42:40;97843.28;;;9.62;56.29
49973;BME280;65693;49.798;10.968;2023-04-21T02:45:08;97844.97;;;9.63;55.87
49973;BME280;65693;49.798;10.968;2023-04-21T02:47:36;97835.34;;;9.62;56.19
49973;BME280;65693;49.798;10.968;2023-04-21T02:50:02;97846.78;;;9.63;55.82
49973;BME280;65693;49.798;10.968;2023-04-21T02:52:29;97837.03;;;9.63;56.27
49973;BME280;65693;49.798;10.968;2023-04-21T02:54:55;97836.22;;;9.63;56.05
49973;BME280;65693;49.798;10.968;2023-04-21T02:57:22;97840.56;;;9.64;56.02
49973;BME280;65693;49.798;10.968;2023-04-21T02:59:48;97830.06;;;9.62;55.96
49973;BME280;65693;49.798;10.968;2023-04-21T03:02:15;97835.34;;;9.62;56.21
49973;BME280;65693;49.798;10.968;2023-04-21T03:04:43;97826.66;;;9.60;56.22
49973;BME280;65693;49.798;10.968;2023-04-21T03:07:10;97829.31;;;9.60;56.11
49973;BME280;65693;49.798;10.968;2023-04-21T03:09:37;97832.69;;;9.62;56.07
49973;BME280;65693;49.798;10.968;2023-04-21T03:12:04;97823.94;;;9.62;56.22
49973;BME280;65693;49.798;10.968;2023-04-21T03:14:30;97825.72;;;9.61;55.90
49973;BME280;65693;49.798;10.968;2023-04-21T03:16:57;97821.28;;;9.62;56.24
49973;BME280;65693;49.798;10.968;2023-04-21T03:19:23;97814.38;;;9.59;56.04
49973;BME280;65693;49.798;10.968;2023-04-21T03:21:51;97814.31;;;9.61;56.17
49973;BME280;65693;49.798;10.968;2023-04-21T03:24:17;97821.28;;;9.62;56.29
49973;BME280;65693;49.798;10.968;2023-04-21T03:26:45;97823.06;;;9.61;56.22
49973;BME280;65693;49.798;10.968;2023-04-21T03:29:12;97822.25;;;9.61;56.62
49973;BME280;65693;49.798;10.968;2023-04-21T03:31:38;97820.44;;;9.61;56.14
49973;BME280;65693;49.798;10.968;2023-04-21T03:34:04;97824.03;;;9.60;56.26
49973;BME280;65693;49.798;10.968;2023-04-21T03:36:31;97822.13;;;9.62;56.17
49973;BME280;65693;49.798;10.968;2023-04-21T03:38:59;97821.28;;;9.62;56.17
49973;BME280;65693;49.798;10.968;2023-04-21T03:41:25;97821.28;;;9.62;56.08
49973;BME280;65693;49.798;10.968;2023-04-21T03:43:51;97825.84;;;9.60;56.11
49973;BME280;65693;49.798;10.968;2023-04-21T03:46:18;97831.13;;;9.60;56.16
49973;BME280;65693;49.798;10.968;2023-04-21T03:48:45;97826.66;;;9.60;56.21
49973;BME280;65693;49.798;10.968;2023-04-21T03:51:11;97831.97;;;9.60;56.33
49973;BME280;65693;49.798;10.968;2023-04-21T03:53:38;97830.81;;;9.64;56.41
49973;BME280;65693;49.798;10.968;2023-04-21T03:56:06;97824.56;;;9.65;56.22
49973;BME280;65693;49.798;10.968;2023-04-21T03:58:33;97824.56;;;9.65;56.20
49973;BME280;65693;49.798;10.968;2023-04-21T04:01:00;97825.50;;;9.64;55.99
49973;BME280;65693;49.798;10.968;2023-04-21T04:03:26;97829.09;;;9.63;56.25
49973;BME280;65693;49.798;10.968;2023-04-21T04:05:53;97828.16;;;9.64;56.42
49973;BME280;65693;49.798;10.968;2023-04-21T04:08:20;97824.69;;;9.64;56.03
49973;BME280;65693;49.798;10.968;2023-04-21T04:10:46;97832.69;;;9.62;56.31
49973;BME280;65693;49.798;10.968;2023-04-21T04:13:14;97824.75;;;9.62;56.21
49973;BME280;65693;49.798;10.968;2023-04-21T04:15:41;97827.41;;;9.62;56.13
49973;BME280;65693;49.798;10.968;2023-04-21T04:18:07;97831.97;;;9.60;56.15
49973;BME280;65693;49.798;10.968;2023-04-21T04:20:33;97826.66;;;9.60;56.42
49973;BME280;65693;49.798;10.968;2023-04-21T04:23:00;97833.88;;;9.58;56.54
49973;BME280;65693;49.798;10.968;2023-04-21T04:25:27;97836.50;;;9.58;56.72
49973;BME280;65693;49.798;10.968;2023-04-21T04:27:54;97836.50;;;9.58;56.28
49973;BME280;65693;49.798;10.968;2023-04-21T04:30:23;97837.38;;;9.59;56.49
49973;BME280;65693;49.798;10.968;2023-04-21T04:32:52;97837.38;;;9.59;56.48
49973;BME280;65693;49.798;10.968;2023-04-21T04:35:19;97841.72;;;9.60;56.16
49973;BME280;65693;49.798;10.968;2023-04-21T04:37:45;97845.19;;;9.60;56.50
49973;BME280;65693;49.798;10.968;2023-04-21T04:40:12;97832.09;;;9.59;56.54
49973;BME280;65693;49.798;10.968;2023-04-21T04:42:39;97850.59;;;9.59;56.50
49973;BME280;65693;49.798;10.968;2023-04-21T04:45:07;97838.28;;;9.58;56.48
49973;BME280;65693;49.798;10.968;2023-04-21T04:47:36;97839.91;;;9.60;56.26
49973;BME280;65693;49.798;10.968;2023-04-21T04:50:03;97838.19;;;9.59;56.23
49973;BME280;65693;49.798;10.968;2023-04-21T04:52:30;97837.47;;;9.57;56.22
49973;BME280;65693;49.798;10.968;2023-04-21T04:54:56;97842.75;;;9.57;56.48
49973;BME280;65693;49.798;10.968;2023-04-21T04:57:23;97840.84;;;9.59;56.52
49973;BME280;65693;49.798;10.968;2023-04-21T04:59:53;97840.94;;;9.58;56.22
49973;BME280;65693;49.798;10.968;2023-04-21T05:02:20;97844.97;;;9.63;56.17
49973;BME280;65693;49.798;10.968;2023-04-21T05:04:49;97840.44;;;9.65;56.54
49973;BME280;65693;49.798;10.968;2023-04-21T05:07:15;97841.28;;;9.66;56.17
49973;BME280;65693;49.798;10.968;2023-04-21T05:09:42;97845.72;;;9.65;56.24
49973;BME280;65693;49.798;10.968;2023-04-21T05:12:08;97846.78;;;9.63;56.27
49973;BME280;65693;49.798;10.968;2023-04-21T05:14:35;97850.41;;;9.62;56.41
49973;BME280;65693;49.798;10.968;2023-04-21T05:17:01;97858.22;;;9.63;56.27
49973;BME280;65693;49.798;10.968;2023-04-21T05:19:28;97860.56;;;9.68;56.41
49973;BME280;65693;49.798;10.968;2023-04-21T05:21:58;97855.28;;;9.68;56.70
49973;BME280;65693;49.798;10.968;2023-04-21T05:24:26;97858.00;;;9.66;56.80
49973;BME280;65693;49.798;10.968;2023-04-21T05:26:52;97856.31;;;9.65;56.73
49973;BME280;65693;49.798;10.968;2023-04-21T05:29:19;97859.91;;;9.64;56.85
49973;BME280;65693;49.798;10.968;2023-04-21T05:31:45;97859.16;;;9.62;56.47
49973;BME280;65693;49.798;10.968;2023-04-21T05:34:12;97868.78;;;9.63;56.61
49973;BME280;65693;49.798;10.968;2023-04-21T05:36:40;97864.38;;;9.64;56.84
49973;BME280;65693;49.798;10.968;2023-04-21T05:39:09;97865.19;;;9.64;56.52
49973;BME280;65693;49.798;10.968;2023-04-21T05:41:35;97861.72;;;9.64;56.85
49973;BME280;65693;49.798;10.968;2023-04-21T05:44:01;97862.47;;;9.66;56.94
49973;BME280;65693;49.798;10.968;2023-04-21T05:46:28;97867.97;;;9.63;56.62
49973;BME280;65693;49.798;10.968;2023-04-21T05:48:55;97867.97;;;9.63;56.83
49973;BME280;65693;49.798;10.968;2023-04-21T05:51:21;97858.22;;;9.63;56.85
49973;BME280;65693;49.798;10.968;2023-04-21T05:53:47;97867.84;;;9.64;56.63
49973;BME280;65693;49.798;10.968;2023-04-21T05:56:15;97860.66;;;9.66;56.60
49973;BME280;65693;49.798;10.968;2023-04-21T05:58:42;97859.72;;;9.67;56.35
49973;BME280;65693;49.798;10.968;2023-04-21T06:01:08;97857.16;;;9.66;56.56
49973;BME280;65693;49.798;10.968;2023-04-21T06:03:35;97848.38;;;9.65;56.82
49973;BME280;65693;49.798;10.968;2023-04-21T06:06:03;97850.94;;;9.67;56.55
49973;BME280;65693;49.798;10.968;2023-04-21T06:08:30;97851.88;;;9.66;56.82
49973;BME280;65693;49.798;10.968;2023-04-21T06:10:57;97852.72;;;9.66;56.38
49973;BME280;65693;49.798;10.968;2023-04-21T06:13:24;97850.06;;;9.66;56.66
49973;BME280;65693;49.798;10.968;2023-04-21T06:15:51;97851.00;;;9.65;56.76
49973;BME280;65693;49.798;10.968;2023-04-21T06:18:18;97858.88;;;9.67;56.39
49973;BME280;65693;49.798;10.968;2023-04-21T06:20:49;97858.00;;;9.66;56.67
49973;BME280;65693;49.798;10.968;2023-04-21T06:23:15;97863.13;;;9.70;56.57
49973;BME280;65693;49.798;10.968;2023-04-21T06:25:42;97861.50;;;9.67;56.57
49973;BME280;65693;49.798;10.968;2023-04-21T06:28:08;97864.16;;;9.67;56.62
49973;BME280;65693;49.798;10.968;2023-04-21T06:30:36;97865.03;;;9.67;56.41
49973;BME280;65693;49.798;10.968;2023-04-21T06:33:02;97861.50;;;9.67;56.52
49973;BME280;65693;49.798;10.968;2023-04-21T06:35:30;97868.41;;;9.70;56.50
49973;BME280;65693;49.798;10.968;2023-04-21T06:37:57;97872.75;;;9.71;56.25
49973;BME280;65693;49.798;10.968;2023-04-21T06:40:23;97865.66;;;9.71;56.47
49973;BME280;65693;49.798;10.968;2023-04-21T06:42:50;97860.47;;;9.70;56.61
49973;BME280;65693;49.798;10.968;2023-04-21T06:45:16;97869.16;;;9.72;56.44
49973;BME280;65693;49.798;10.968;2023-04-21T06:47:44;97857.63;;;9.73;56.29
49973;BME280;65693;49.798;10.968;2023-04-21T06:50:10;97867.34;;;9.72;56.43
49973;BME280;65693;49.798;10.968;2023-04-21T06:52:37;97855.81;;;9.73;56.21
49973;BME280;65693;49.798;10.968;2023-04-21T06:55:04;97864.69;;;9.72;56.42
49973;BME280;65693;49.798;10.968;2023-04-21T06:57:31;97865.56;;;9.73;56.44
49973;BME280;65693;49.798;10.968;2023-04-21T06:59:57;97868.94;;;9.75;56.22
49973;BME280;65693;49.798;10.968;2023-04-21T07:02:24;97861.88;;;9.75;56.48
49973;BME280;65693;49.798;10.968;2023-04-21T07:04:52;97860.91;;;9.76;56.39
49973;BME280;65693;49.798;10.968;2023-04-21T07:07:18;97858.28;;;9.76;56.25
49973;BME280;65693;49.798;10.968;2023-04-21T07:09:44;97851.16;;;9.77;56.36
49973;BME280;65693;49.798;10.968;2023-04-21T07:12:12;97854.56;;;9.79;56.49
49973;BME280;65693;49.798;10.968;2023-04-21T07:14:39;97859.00;;;9.78;56.16
49973;BME280;65693;49.798;10.968;2023-04-21T07:17:05;97861.53;;;9.80;56.17
49973;BME280;65693;49.798;10.968;2023-04-21T07:19:32;97857.94;;;9.81;56.35
49973;BME280;65693;49.798;10.968;2023-04-21T07:22:00;97868.53;;;9.81;56.51
49973;BME280;65693;49.798;10.968;2023-04-21T07:24:26;97871.09;;;9.82;56.17
49973;BME280;65693;49.798;10.968;2023-04-21T07:26:52;97873.66;;;9.84;56.20
49973;BME280;65693;49.798;10.968;2023-04-21T07:29:19;97871.09;;;9.82;56.06
49973;BME280;65693;49.798;10.968;2023-04-21T07:31:45;97865.59;;;9.86;56.41
49973;BME280;65693;49.798;10.968;2023-04-21T07:34:12;97870.66;;;9.89;56.16
49973;BME280;65693;49.798;10.968;2023-04-21T07:36:38;97861.97;;;9.87;56.06
49973;BME280;65693;49.798;10.968;2023-04-21T07:39:06;97862.72;;;9.89;56.03
49973;BME280;65693;49.798;10.968;2023-04-21T07:41:33;97871.63;;;9.88;56.38
49973;BME280;65693;49.798;10.968;2023-04-21T07:43:59;97879.56;;;9.88;56.45
49973;BME280;65693;49.798;10.968;2023-04-21T07:46:26;97876.69;;;9.91;56.08
49973;BME280;65693;49.798;10.968;2023-04-21T07:48:54;97884.75;;;9.89;56.12
49973;BME280;65693;49.798;10.968;2023-04-21T07:51:22;97880.41;;;9.88;56.30
49973;BME280;65693;49.798;10.968;2023-04-21T07:53:48;97882.00;;;9.91;56.13
49973;BME280;65693;49.798;10.968;2023-04-21T07:56:16;97880.97;;;9.93;56.26
49973;BME280;65693;49.798;10.968;2023-04-21T07:58:42;97865.06;;;9.93;56.35
49973;BME280;65693;49.798;10.968;2023-04-21T08:01:09;97863.28;;;9.94;56.11
49973;BME280;65693;49.798;10.968;2023-04-21T08:03:36;97864.03;;;9.96;56.46
49973;BME280;65693;49.798;10.968;2023-04-21T08:06:02;97866.69;;;9.96;56.49
49973;BME280;65693;49.798;10.968;2023-04-21T08:08:29;97867.50;;;9.96;56.21
49973;BME280;65693;49.798;10.968;2023-04-21T08:10:55;97855.97;;;9.97;56.22
49973;BME280;65693;49.798;10.968;2023-04-21T08:13:23;97861.25;;;9.97;56.42
49973;BME280;65693;49.798;10.968;2023-04-21T08:15:50;97865.72;;;9.97;56.31
49973;BME280;65693;49.798;10.968;2023-04-21T08:18:16;97869.13;;;9.99;56.05
49973;BME280;65693;49.798;10.968;2023-04-21T08:20:43;97858.53;;;9.99;56.30
49973;BME280;65693;49.798;10.968;2023-04-21T08:23:11;97855.66;;;10.02;56.46
49973;BME280;65693;49.798;10.968;2023-04-21T08:25:37;97854.91;;;10.00;56.50
49973;BME280;65693;49.798;10.968;2023-04-21T08:28:04;97854.84;;;10.02;56.26
49973;BME280;65693;49.798;10.968;2023-04-21T08:30:31;97843.16;;;10.04;56.07
49973;BME280;65693;49.798;10.968;2023-04-21T08:32:58;97844.97;;;10.04;56.40
49973;BME280;65693;49.798;10.968;2023-04-21T08:35:25;97836.91;;;10.05;56.02
49973;BME280;65693;49.798;10.968;2023-04-21T08:37:51;97841.16;;;10.08;55.99
49973;BME280;65693;49.798;10.968;2023-04-21T08:40:18;97844.69;;;10.08;56.25
49973;BME280;65693;49.798;10.968;2023-04-21T08:42:45;97841.25;;;10.06;55.98
49973;BME280;65693;49.798;10.968;2023-04-21T08:45:12;97836.72;;;10.08;56.52
49973;BME280;65693;49.798;10.968;2023-04-21T08:47:40;97840.22;;;10.09;56.23
49973;BME280;65693;49.798;10.968;2023-04-21T08:50:11;97835.66;;;10.11;56.47
49973;BME280;65693;49.798;10.968;2023-04-21T08:52:38;97830.16;;;10.14;56.21
49973;BME280;65693;49.798;10.968;2023-04-21T08:55:05;97834.63;;;10.14;56.24
49973;BME280;65693;49.798;10.968;2023-04-21T08:57:32;97835.44;;;10.14;56.33
49973;BME280;65693;49.798;10.968;2023-04-21T08:59:59;97833.66;;;10.15;56.37
49973;BME280;65693;49.798;10.968;2023-04-21T09:02:25;97831.75;;;10.17;56.48
49973;BME280;65693;49.798;10.968;2023-04-21T09:04:53;97833.53;;;10.16;56.38
49973;BME280;65693;49.798;10.968;2023-04-21T09:07:31;97836.09;;;10.18;56.61
49973;BME280;65693;49.798;10.968;2023-04-21T09:09:58;97830.69;;;10.19;56.77
49973;BME280;65693;49.798;10.968;2023-04-21T09:12:26;97827.94;;;10.21;56.36
49973;BME280;65693;49.798;10.968;2023-04-21T09:14:52;97827.09;;;10.20;56.82
49973;BME280;65693;49.798;10.968;2023-04-21T09:17:21;97826.88;;;10.23;56.69
49973;BME280;65693;49.798;10.968;2023-04-21T09:19:48;97834.81;;;10.23;56.63
49973;BME280;65693;49.798;10.968;2023-04-21T09:22:16;97837.38;;;10.25;56.24
49973;BME280;65693;49.798;10.968;2023-04-21T09:24:44;97825.63;;;10.29;56.79
49973;BME280;65693;49.798;10.968;2023-04-21T09:27:14;97822.09;;;10.29;56.55
49973;BME280;65693;49.798;10.968;2023-04-21T09:29:44;97821.06;;;10.31;56.87
49973;BME280;65693;49.798;10.968;2023-04-21T09:32:15;97823.72;;;10.31;56.86
49973;BME280;65693;49.798;10.968;2023-04-21T09:34:42;97823.59;;;10.33;56.48
49973;BME280;65693;49.798;10.968;2023-04-21T09:37:10;97816.41;;;10.35;56.51
49973;BME280;65693;49.798;10.968;2023-04-21T09:39:39;97817.22;;;10.35;56.83
49973;BME280;65693;49.798;10.968;2023-04-21T09:42:10;97817.13;;;10.37;56.46
49973;BME280;65693;49.798;10.968;2023-04-21T09:44:36;97812.59;;;10.39;56.46
49973;BME280;65693;49.798;10.968;2023-04-21T09:47:03;97818.72;;;10.39;56.46
49973;BME280;65693;49.798;10.968;2023-04-21T09:49:34;97815.97;;;10.41;56.46
49973;BME280;65693;49.798;10.968;2023-04-21T09:52:05;97820.22;;;11.31;55.84
49973;BME280;65693;49.798;10.968;2023-04-21T09:54:32;97822.44;;;12.90;54.52
49973;BME280;65693;49.798;10.968;2023-04-21T09:57:02;97813.00;;;13.53;53.30
49973;BME280;65693;49.798;10.968;2023-04-21T09:59:31;97815.34;;;13.68;52.88
49973;BME280;65693;49.798;10.968;2023-04-21T10:01:59;97811.03;;;14.09;51.95
49973;BME280;65693;49.798;10.968;2023-04-21T10:04:27;97810.25;;;13.76;52.78
49973;BME280;65693;49.798;10.968;2023-04-21T10:06:54;97800.13;;;14.12;51.98
49973;BME280;65693;49.798;10.968;2023-04-21T10:09:22;97808.44;;;14.40;52.80
49973;BME280;65693;49.798;10.968;2023-04-21T10:11:51;97804.34;;;14.67;52.04
49973;BME280;65693;49.798;10.968;2023-04-21T10:14:21;97803.25;;;14.79;50.27
49973;BME280;65693;49.798;10.968;2023-04-21T10:16:55;97803.34;;;14.99;50.44
49973;BME280;65693;49.798;10.968;2023-04-21T10:19:23;97802.72;;;15.27;49.32
49973;BME280;65693;49.798;10.968;2023-04-21T10:21:50;97803.25;;;15.20;48.23
49973;BME280;65693;49.798;10.968;2023-04-21T10:24:16;97791.50;;;14.92;48.36
49973;BME280;65693;49.798;10.968;2023-04-21T10:26:43;97785.81;;;15.06;49.35
49973;BME280;65693;49.798;10.968;2023-04-21T10:29:09;97790.19;;;15.17;48.85
49973;BME280;65693;49.798;10.968;2023-04-21T10:31:49;97786.53;;;15.18;48.60
49973;BME280;65693;49.798;10.968;2023-04-21T10:34:21;97785.31;;;15.42;49.50
49973;BME280;65693;49.798;10.968;2023-04-21T10:39:50;97782.06;;;15.68;49.28
49973;BME280;65693;49.798;10.968;2023-04-21T10:42:18;97779.00;;;15.63;47.53
49973;BME280;65693;49.798;10.968;2023-04-21T10:44:50;97779.81;;;15.63;47.53
49973;BME280;65693;49.798;10.968;2023-04-21T10:47:25;97771.00;;;15.53;47.08
49973;BME280;65693;49.798;10.968;2023-04-21T10:49:52;97770.28;;;15.51;47.57
49973;BME280;65693;49.798;10.968;2023-04-21T10:52:18;97765.06;;;15.30;49.12
49973;BME280;65693;49.798;10.968;2023-04-21T10:55:04;97761.56;;;15.39;48.89
49973;BME280;65693;49.798;10.968;2023-04-21T10:57:33;97758.34;;;15.55;49.23
49973;BME280;65693;49.798;10.968;2023-04-21T11:00:00;97759.31;;;15.74;49.29
49973;BME280;65693;49.798;10.968;2023-04-21T11:02:32;97752.78;;;16.06;48.42
49973;BME280;65693;49.798;10.968;2023-04-21T11:04:59;97758.13;;;16.06;48.91
49973;BME280;65693;49.798;10.968;2023-04-21T11:07:26;97754.63;;;16.05;48.07
49973;BME280;65693;49.798;10.968;2023-04-21T11:09:56;97758.97;;;15.97;48.93
49973;BME280;65693;49.798;10.968;2023-04-21T11:12:26;97753.75;;;16.15;48.02
49973;BME280;65693;49.798;10.968;2023-04-21T11:14:54;97755.84;;;16.31;47.57
49973;BME280;65693;49.798;10.968;2023-04-21T11:17:21;97750.69;;;16.10;47.32
49973;BME280;65693;49.798;10.968;2023-04-21T11:19:51;97745.44;;;16.28;47.54
49973;BME280;65693;49.798;10.968;2023-04-21T11:22:18;97742.63;;;16.29;48.15
49973;BME280;65693;49.798;10.968;2023-04-21T11:24:46;97741.78;;;16.19;47.66
49973;BME280;65693;49.798;10.968;2023-04-21T11:27:13;97745.16;;;16.31;47.99
49973;BME280;65693;49.798;10.968;2023-04-21T11:29:40;97741.59;;;16.40;47.43
49973;BME280;65693;49.798;10.968;2023-04-21T11:32:07;97735.69;;;16.37;47.58
49973;BME280;65693;49.798;10.968;2023-04-21T11:34:35;97733.66;;;16.20;47.95
49973;BME280;65693;49.798;10.968;2023-04-21T11:37:05;97716.75;;;16.58;47.82
49973;BME280;65693;49.798;10.968;2023-04-21T11:39:32;97736.28;;;16.86;46.48
49973;BME280;65693;49.798;10.968;2023-04-21T11:41:58;97734.59;;;16.67;46.28
49973;BME280;65693;49.798;10.968;2023-04-21T11:44:34;97737.00;;;16.60;45.95
49973;BME280;65693;49.798;10.968;2023-04-21T11:47:11;97728.81;;;16.62;46.52
49973;BME280;65693;49.798;10.968;2023-04-21T11:49:43;97724.03;;;16.66;46.79
49973;BME280;65693;49.798;10.968;2023-04-21T11:52:18;97732.69;;;16.77;47.02
49973;BME280;65693;49.798;10.968;2023-04-21T11:54:44;97718.78;;;16.92;45.12
49973;BME280;65693;49.798;10.968;2023-04-21T11:57:11;97718.13;;;16.90;45.35
49973;BME280;65693;49.798;10.968;2023-04-21T11:59:37;97713.06;;;16.87;45.04
49973;BME280;65693;49.798;10.968;2023-04-21T12:02:04;97712.44;;;16.93;46.41
49973;BME280;65693;49.798;10.968;2023-04-21T12:04:31;97705.81;;;16.97;45.15
49973;BME280;65693;49.798;10.968;2023-04-21T12:07:00;97710.63;;;16.94;46.31
49973;BME280;65693;49.798;10.968;2023-04-21T12:09:28;97697.88;;;17.05;45.34
49973;BME280;65693;49.798;10.968;2023-04-21T12:11:56;97709.78;;;17.39;44.71
49973;BME280;65693;49.798;10.968;2023-04-21T12:14:24;97709.59;;;17.23;44.62
49973;BME280;65693;49.798;10.968;2023-04-21T12:16:54;97707.72;;;17.23;45.43
49973;BME280;65693;49.798;10.968;2023-04-21T12:19:22;97699.66;;;17.15;44.80
49973;BME280;65693;49.798;10.968;2023-04-21T12:21:53;97705.06;;;17.05;45.26
49973;BME280;65693;49.798;10.968;2023-04-21T12:24:20;97705.22;;;17.03;45.66
49973;BME280;65693;49.798;10.968;2023-04-21T12:26:48;97707.09;;;16.47;47.09
49973;BME280;65693;49.798;10.968;2023-04-21T12:29:15;97698.69;;;16.88;45.27
49973;BME280;65693;49.798;10.968;2023-04-21T12:31:41;97704.91;;;17.06;45.14
49973;BME280;65693;49.798;10.968;2023-04-21T12:34:08;97695.97;;;17.16;45.52
49973;BME280;65693;49.798;10.968;2023-04-21T12:36:34;97706.69;;;17.34;45.20
49973;BME280;65693;49.798;10.968;2023-04-21T12:39:01;97701.56;;;17.41;45.30
49973;BME280;65693;49.798;10.968;2023-04-21T12:41:27;97691.47;;;17.34;44.92
49973;BME280;65693;49.798;10.968;2023-04-21T12:43:55;97691.66;;;17.59;43.95
49973;BME280;65693;49.798;10.968;2023-04-21T12:46:22;97694.41;;;17.68;44.19
49973;BME280;65693;49.798;10.968;2023-04-21T12:48:48;97692.09;;;17.73;44.41
49973;BME280;65693;49.798;10.968;2023-04-21T12:51:16;97688.53;;;17.64;43.18
49973;BME280;65693;49.798;10.968;2023-04-21T12:53:43;97686.00;;;17.62;43.49
49973;BME280;65693;49.798;10.968;2023-04-21T12:56:09;97694.41;;;17.68;43.65
49973;BME280;65693;49.798;10.968;2023-04-21T12:58:36;97684.63;;;17.85;43.22
49973;BME280;65693;49.798;10.968;2023-04-21T13:01:04;97682.63;;;17.60;43.62